sensor_id;sensor_type;location;lat;lon;timestamp;temperature;humidity
31979;DHT22;18502;43.574;1.276;2023-09-19T00:00:43;16.10;99.90
31979;DHT22;18502;43.574;1.276;2023-09-19T00:03:10;16.20;99.90
31979;DHT22;18502;43.574;1.276;2023-09-19T00:05:38;16.10;99.90
31979;DHT22;18502;43.574;1.276;2023-09-19T00:08:04;16.10;99.90
31979;DHT22;18502;43.574;1.276;2023-09-19T00:10:31;16.20;99.90
31979;DHT22;18502;43.574;1.276;2023-09-19T00:12:58;16.10;99.90
31979;DHT22;18502;43.574;1.276;2023-09-19T00:15:26;16.00;99.90
31979;DHT22;18502;43.574;1.276;2023-09-19T00:17:55;16.00;99.90
31979;DHT22;18502;43.574;1.276;2023-09-19T00:20:21;15.90;99.90
31979;DHT22;18502;43.574;1.276;2023-09-19T00:22:49;15.90;99.90
31979;DHT22;18502;43.574;1.276;2023-09-19T00:25:19;15.90;99.90
31979;DHT22;18502;43.574;1.276;2023-09-19T00:27:48;16.00;99.90
31979;DHT22;18502;43.574;1.276;2023-09-19T00:30:17;16.00;99.90
31979;DHT22;18502;43.574;1.276;2023-09-19T00:32:50;15.90;99.90
31979;DHT22;18502;43.574;1.276;2023-09-19T00:35:20;16.00;99.90
31979;DHT22;18502;43.574;1.276;2023-09-19T00:37:47;16.10;99.90
31979;DHT22;18502;43.574;1.276;2023-09-19T00:40:12;16.00;99.90
31979;DHT22;18502;43.574;1.276;2023-09-19T00:42:41;16.00;99.90
31979;DHT22;18502;43.574;1.276;2023-09-19T00:45:11;16.00;99.90
31979;DHT22;18502;43.574;1.276;2023-09-19T00:47:50;15.90;99.90
31979;DHT22;18502;43.574;1.276;2023-09-19T00:50:18;15.90;99.90
31979;DHT22;18502;43.574;1.276;2023-09-19T00:52:46;16.00;99.90
31979;DHT22;18502;43.574;1.276;2023-09-19T00:55:14;15.90;99.90
31979;DHT22;18502;43.574;1.276;2023-09-19T00:57:41;16.00;99.90
31979;DHT22;18502;43.574;1.276;2023-09-19T01:00:08;15.90;99.90
31979;DHT22;18502;43.574;1.276;2023-09-19T01:02:41;16.00;99.90
31979;DHT22;18502;43.574;1.276;2023-09-19T01:05:09;15.90;99.90
31979;DHT22;18502;43.574;1.276;2023-09-19T01:07:35;15.90;99.90
31979;DHT22;18502;43.574;1.276;2023-09-19T01:10:05;15.80;99.90
31979;DHT22;18502;43.574;1.276;2023-09-19T01:12:45;15.80;99.90
31979;DHT22;18502;43.574;1.276;2023-09-19T01:23:39;15.90;99.90
31979;DHT22;18502;43.574;1.276;2023-09-19T01:26:39;15.80;99.90
31979;DHT22;18502;43.574;1.276;2023-09-19T01:32:05;15.80;99.90
31979;DHT22;18502;43.574;1.276;2023-09-19T01:34:45;15.70;99.90
31979;DHT22;18502;43.574;1.276;2023-09-19T01:37:15;15.70;99.90
31979;DHT22;18502;43.574;1.276;2023-09-19T01:39:50;15.60;99.90
31979;DHT22;18502;43.574;1.276;2023-09-19T01:45:12;15.60;99.90
31979;DHT22;18502;43.574;1.276;2023-09-19T01:47:48;15.60;99.90
31979;DHT22;18502;43.574;1.276;2023-09-19T01:50:32;15.60;99.90
31979;DHT22;18502;43.574;1.276;2023-09-19T01:53:27;15.60;99.90
31979;DHT22;18502;43.574;1.276;2023-09-19T01:55:54;15.50;99.90
31979;DHT22;18502;43.574;1.276;2023-09-19T01:58:27;15.50;99.90
31979;DHT22;18502;43.574;1.276;2023-09-19T02:00:57;15.60;99.90
31979;DHT22;18502;43.574;1.276;2023-09-19T02:03:24;15.60;99.90
31979;DHT22;18502;43.574;1.276;2023-09-19T02:05:51;15.60;99.90
31979;DHT22;18502;43.574;1.276;2023-09-19T02:08:19;15.60;99.90
31979;DHT22;18502;43.574;1.276;2023-09-19T02:10:45;15.50;99.90
31979;DHT22;18502;43.574;1.276;2023-09-19T02:13:18;15.50;99.90
31979;DHT22;18502;43.574;1.276;2023-09-19T02:15:44;15.50;99.90
31979;DHT22;18502;43.574;1.276;2023-09-19T02:18:11;15.50;99.90
31979;DHT22;18502;43.574;1.276;2023-09-19T02:20:40;15.50;99.90
31979;DHT22;18502;43.574;1.276;2023-09-19T02:23:06;15.60;99.90
31979;DHT22;18502;43.574;1.276;2023-09-19T02:25:32;15.50;99.90
31979;DHT22;18502;43.574;1.276;2023-09-19T02:27:57;15.50;99.90
31979;DHT22;18502;43.574;1.276;2023-09-19T02:30:24;15.60;99.90
31979;DHT22;18502;43.574;1.276;2023-09-19T02:32:53;15.60;99.90
31979;DHT22;18502;43.574;1.276;2023-09-19T02:35:19;15.50;99.90
31979;DHT22;18502;43.574;1.276;2023-09-19T02:37:48;15.50;99.90
31979;DHT22;18502;43.574;1.276;2023-09-19T02:40:14;15.50;99.90
31979;DHT22;18502;43.574;1.276;2023-09-19T02:42:54;15.50;99.90
31979;DHT22;18502;43.574;1.276;2023-09-19T02:45:20;15.30;99.90
31979;DHT22;18502;43.574;1.276;2023-09-19T02:47:46;15.40;99.90
31979;DHT22;18502;43.574;1.276;2023-09-19T02:50:13;15.30;99.90
31979;DHT22;18502;43.574;1.276;2023-09-19T02:52:42;15.30;99.90
31979;DHT22;18502;43.574;1.276;2023-09-19T02:55:11;15.30;99.90
31979;DHT22;18502;43.574;1.276;2023-09-19T02:57:38;15.20;99.90
31979;DHT22;18502;43.574;1.276;2023-09-19T03:00:07;15.20;99.90
31979;DHT22;18502;43.574;1.276;2023-09-19T03:02:36;15.30;99.90
31979;DHT22;18502;43.574;1.276;2023-09-19T03:05:01;15.40;99.90
31979;DHT22;18502;43.574;1.276;2023-09-19T03:07:29;15.40;99.90
31979;DHT22;18502;43.574;1.276;2023-09-19T03:09:54;15.40;99.90
31979;DHT22;18502;43.574;1.276;2023-09-19T03:12:20;15.30;99.90
31979;DHT22;18502;43.574;1.276;2023-09-19T03:14:46;15.20;99.90
31979;DHT22;18502;43.574;1.276;2023-09-19T03:17:12;15.20;99.90
31979;DHT22;18502;43.574;1.276;2023-09-19T03:19:40;15.30;99.90
31979;DHT22;18502;43.574;1.276;2023-09-19T03:22:06;15.30;99.90
31979;DHT22;18502;43.574;1.276;2023-09-19T03:24:32;15.30;99.90
31979;DHT22;18502;43.574;1.276;2023-09-19T03:26:59;15.30;99.90
31979;DHT22;18502;43.574;1.276;2023-09-19T03:29:25;15.20;99.90
31979;DHT22;18502;43.574;1.276;2023-09-19T03:31:51;15.30;99.90
31979;DHT22;18502;43.574;1.276;2023-09-19T03:34:17;15.20;99.90
31979;DHT22;18502;43.574;1.276;2023-09-19T03:36:42;15.20;99.90
31979;DHT22;18502;43.574;1.276;2023-09-19T03:39:08;15.20;99.90
31979;DHT22;18502;43.574;1.276;2023-09-19T03:41:34;15.30;99.90
31979;DHT22;18502;43.574;1.276;2023-09-19T03:44:02;15.40;99.90
31979;DHT22;18502;43.574;1.276;2023-09-19T03:46:28;15.40;99.90
31979;DHT22;18502;43.574;1.276;2023-09-19T03:48:54;15.40;99.90
31979;DHT22;18502;43.574;1.276;2023-09-19T03:51:20;15.30;99.90
31979;DHT22;18502;43.574;1.276;2023-09-19T03:53:46;15.30;99.90
31979;DHT22;18502;43.574;1.276;2023-09-19T03:56:12;15.20;99.90
31979;DHT22;18502;43.574;1.276;2023-09-19T03:58:37;15.20;99.90
31979;DHT22;18502;43.574;1.276;2023-09-19T04:01:05;15.10;99.90
31979;DHT22;18502;43.574;1.276;2023-09-19T04:03:33;15.20;99.90
31979;DHT22;18502;43.574;1.276;2023-09-19T04:06:14;15.10;99.90
31979;DHT22;18502;43.574;1.276;2023-09-19T04:08:40;15.00;99.90
31979;DHT22;18502;43.574;1.276;2023-09-19T04:11:06;15.00;99.90
31979;DHT22;18502;43.574;1.276;2023-09-19T04:13:32;15.00;99.90
31979;DHT22;18502;43.574;1.276;2023-09-19T04:15:57;15.00;99.90
31979;DHT22;18502;43.574;1.276;2023-09-19T04:18:23;15.00;99.90
31979;DHT22;18502;43.574;1.276;2023-09-19T04:20:52;14.90;99.90
31979;DHT22;18502;43.574;1.276;2023-09-19T04:23:18;14.90;99.90
31979;DHT22;18502;43.574;1.276;2023-09-19T04:25:46;14.90;99.90
31979;DHT22;18502;43.574;1.276;2023-09-19T04:28:11;14.90;99.90
31979;DHT22;18502;43.574;1.276;2023-09-19T04:30:38;14.80;99.90
31979;DHT22;18502;43.574;1.276;2023-09-19T04:33:06;14.90;99.90
31979;DHT22;18502;43.574;1.276;2023-09-19T04:35:32;14.90;99.90
31979;DHT22;18502;43.574;1.276;2023-09-19T04:37:58;14.80;99.90
31979;DHT22;18502;43.574;1.276;2023-09-19T04:40:24;14.90;99.90
31979;DHT22;18502;43.574;1.276;2023-09-19T04:42:55;14.90;99.90
31979;DHT22;18502;43.574;1.276;2023-09-19T04:45:24;14.80;99.90
31979;DHT22;18502;43.574;1.276;2023-09-19T04:47:50;14.80;99.90
31979;DHT22;18502;43.574;1.276;2023-09-19T04:50:15;14.80;99.90
31979;DHT22;18502;43.574;1.276;2023-09-19T04:52:43;14.80;99.90
31979;DHT22;18502;43.574;1.276;2023-09-19T04:55:13;14.90;99.90
31979;DHT22;18502;43.574;1.276;2023-09-19T04:57:51;14.90;99.90
31979;DHT22;18502;43.574;1.276;2023-09-19T05:00:19;14.90;99.90
31979;DHT22;18502;43.574;1.276;2023-09-19T05:02:53;14.80;99.90
31979;DHT22;18502;43.574;1.276;2023-09-19T05:05:21;14.80;99.90
31979;DHT22;18502;43.574;1.276;2023-09-19T05:07:48;14.80;99.90
31979;DHT22;18502;43.574;1.276;2023-09-19T05:10:14;14.70;99.90
31979;DHT22;18502;43.574;1.276;2023-09-19T05:12:41;14.70;99.90
31979;DHT22;18502;43.574;1.276;2023-09-19T05:15:07;14.60;99.90
31979;DHT22;18502;43.574;1.276;2023-09-19T05:17:33;14.60;99.90
31979;DHT22;18502;43.574;1.276;2023-09-19T05:20:00;14.60;99.90
31979;DHT22;18502;43.574;1.276;2023-09-19T05:22:37;14.60;99.90
31979;DHT22;18502;43.574;1.276;2023-09-19T05:25:05;14.60;99.90
31979;DHT22;18502;43.574;1.276;2023-09-19T05:27:32;14.70;99.90
31979;DHT22;18502;43.574;1.276;2023-09-19T05:29:59;14.50;99.90
31979;DHT22;18502;43.574;1.276;2023-09-19T05:32:25;14.50;99.90
31979;DHT22;18502;43.574;1.276;2023-09-19T05:34:50;14.40;99.90
31979;DHT22;18502;43.574;1.276;2023-09-19T05:37:19;14.40;99.90
31979;DHT22;18502;43.574;1.276;2023-09-19T05:39:45;14.40;99.90
31979;DHT22;18502;43.574;1.276;2023-09-19T05:42:10;14.40;99.90
31979;DHT22;18502;43.574;1.276;2023-09-19T05:44:36;14.50;99.90
31979;DHT22;18502;43.574;1.276;2023-09-19T05:47:05;14.50;99.90
31979;DHT22;18502;43.574;1.276;2023-09-19T05:49:30;14.50;99.90
31979;DHT22;18502;43.574;1.276;2023-09-19T05:51:56;14.50;99.90
31979;DHT22;18502;43.574;1.276;2023-09-19T05:54:24;14.50;99.90
31979;DHT22;18502;43.574;1.276;2023-09-19T05:56:50;14.40;99.90
31979;DHT22;18502;43.574;1.276;2023-09-19T05:59:18;14.40;99.90
31979;DHT22;18502;43.574;1.276;2023-09-19T06:01:44;14.20;99.90
31979;DHT22;18502;43.574;1.276;2023-09-19T06:04:12;14.20;99.90
31979;DHT22;18502;43.574;1.276;2023-09-19T06:06:38;14.10;99.90
31979;DHT22;18502;43.574;1.276;2023-09-19T06:09:06;14.20;99.90
31979;DHT22;18502;43.574;1.276;2023-09-19T06:11:37;14.20;99.90
31979;DHT22;18502;43.574;1.276;2023-09-19T06:14:03;14.30;99.90
31979;DHT22;18502;43.574;1.276;2023-09-19T06:16:30;14.40;99.90
31979;DHT22;18502;43.574;1.276;2023-09-19T06:18:57;14.50;99.90
31979;DHT22;18502;43.574;1.276;2023-09-19T06:21:25;14.50;99.90
31979;DHT22;18502;43.574;1.276;2023-09-19T06:23:53;14.70;99.90
31979;DHT22;18502;43.574;1.276;2023-09-19T06:26:18;14.80;99.90
31979;DHT22;18502;43.574;1.276;2023-09-19T06:28:44;14.80;99.90
31979;DHT22;18502;43.574;1.276;2023-09-19T06:31:10;14.90;99.90
31979;DHT22;18502;43.574;1.276;2023-09-19T06:33:37;15.00;99.90
31979;DHT22;18502;43.574;1.276;2023-09-19T06:36:06;15.10;99.90
31979;DHT22;18502;43.574;1.276;2023-09-19T06:38:32;15.20;99.90
31979;DHT22;18502;43.574;1.276;2023-09-19T06:41:00;15.30;99.90
31979;DHT22;18502;43.574;1.276;2023-09-19T06:43:27;15.40;99.90
31979;DHT22;18502;43.574;1.276;2023-09-19T06:45:56;15.50;99.90
31979;DHT22;18502;43.574;1.276;2023-09-19T06:48:21;15.60;99.90
31979;DHT22;18502;43.574;1.276;2023-09-19T06:50:47;15.70;99.90
31979;DHT22;18502;43.574;1.276;2023-09-19T06:53:15;15.80;99.90
31979;DHT22;18502;43.574;1.276;2023-09-19T06:55:41;15.80;99.90
31979;DHT22;18502;43.574;1.276;2023-09-19T06:58:09;15.90;99.90
31979;DHT22;18502;43.574;1.276;2023-09-19T07:00:36;15.90;99.90
31979;DHT22;18502;43.574;1.276;2023-09-19T07:03:07;16.10;99.90
31979;DHT22;18502;43.574;1.276;2023-09-19T07:05:39;16.20;99.90
31979;DHT22;18502;43.574;1.276;2023-09-19T07:08:07;16.40;99.90
31979;DHT22;18502;43.574;1.276;2023-09-19T07:10:33;16.50;99.90
31979;DHT22;18502;43.574;1.276;2023-09-19T07:13:04;16.60;99.90
31979;DHT22;18502;43.574;1.276;2023-09-19T07:15:32;16.80;99.90
31979;DHT22;18502;43.574;1.276;2023-09-19T07:18:04;16.80;99.90
31979;DHT22;18502;43.574;1.276;2023-09-19T07:20:30;17.00;99.90
31979;DHT22;18502;43.574;1.276;2023-09-19T07:22:58;17.10;99.90
31979;DHT22;18502;43.574;1.276;2023-09-19T07:25:25;17.30;99.90
31979;DHT22;18502;43.574;1.276;2023-09-19T07:27:51;17.50;99.90
31979;DHT22;18502;43.574;1.276;2023-09-19T07:30:17;17.50;99.90
31979;DHT22;18502;43.574;1.276;2023-09-19T07:32:42;17.70;99.90
31979;DHT22;18502;43.574;1.276;2023-09-19T07:35:08;17.80;99.90
31979;DHT22;18502;43.574;1.276;2023-09-19T07:37:34;17.90;99.90
31979;DHT22;18502;43.574;1.276;2023-09-19T07:40:05;18.00;99.90
31979;DHT22;18502;43.574;1.276;2023-09-19T07:42:37;18.10;99.90
31979;DHT22;18502;43.574;1.276;2023-09-19T07:45:05;18.20;99.90
31979;DHT22;18502;43.574;1.276;2023-09-19T07:47:30;18.30;99.90
31979;DHT22;18502;43.574;1.276;2023-09-19T07:49:58;18.50;99.90
31979;DHT22;18502;43.574;1.276;2023-09-19T07:52:24;18.60;99.90
31979;DHT22;18502;43.574;1.276;2023-09-19T07:54:50;18.70;99.90
31979;DHT22;18502;43.574;1.276;2023-09-19T07:57:15;18.80;99.90
31979;DHT22;18502;43.574;1.276;2023-09-19T07:59:41;18.90;99.90
31979;DHT22;18502;43.574;1.276;2023-09-19T08:02:08;19.10;99.90
31979;DHT22;18502;43.574;1.276;2023-09-19T08:04:35;19.20;99.90
31979;DHT22;18502;43.574;1.276;2023-09-19T08:07:01;19.20;99.90
31979;DHT22;18502;43.574;1.276;2023-09-19T08:09:29;19.20;99.90
31979;DHT22;18502;43.574;1.276;2023-09-19T08:11:58;19.50;99.90
31979;DHT22;18502;43.574;1.276;2023-09-19T08:14:25;19.90;99.90
31979;DHT22;18502;43.574;1.276;2023-09-19T08:16:51;20.30;99.90
31979;DHT22;18502;43.574;1.276;2023-09-19T08:19:17;20.80;99.90
31979;DHT22;18502;43.574;1.276;2023-09-19T08:21:42;21.20;99.90
31979;DHT22;18502;43.574;1.276;2023-09-19T08:24:12;21.20;99.90
31979;DHT22;18502;43.574;1.276;2023-09-19T08:26:39;21.50;99.90
31979;DHT22;18502;43.574;1.276;2023-09-19T08:29:05;21.60;99.90
31979;DHT22;18502;43.574;1.276;2023-09-19T08:31:35;21.10;99.90
31979;DHT22;18502;43.574;1.276;2023-09-19T08:34:01;20.80;99.90
31979;DHT22;18502;43.574;1.276;2023-09-19T08:36:26;20.70;99.90
31979;DHT22;18502;43.574;1.276;2023-09-19T08:38:52;20.50;99.90
31979;DHT22;18502;43.574;1.276;2023-09-19T08:41:18;20.30;99.90
31979;DHT22;18502;43.574;1.276;2023-09-19T08:43:44;20.20;99.90
31979;DHT22;18502;43.574;1.276;2023-09-19T08:46:11;20.20;99.90
31979;DHT22;18502;43.574;1.276;2023-09-19T08:49:05;20.10;99.90
31979;DHT22;18502;43.574;1.276;2023-09-19T08:51:41;20.40;99.90
31979;DHT22;18502;43.574;1.276;2023-09-19T08:54:18;21.00;99.90
31979;DHT22;18502;43.574;1.276;2023-09-19T08:56:47;21.80;99.90
31979;DHT22;18502;43.574;1.276;2023-09-19T08:59:14;22.90;99.90
31979;DHT22;18502;43.574;1.276;2023-09-19T09:01:41;23.10;99.90
31979;DHT22;18502;43.574;1.276;2023-09-19T09:04:11;22.70;99.90
31979;DHT22;18502;43.574;1.276;2023-09-19T09:06:39;22.50;99.90
31979;DHT22;18502;43.574;1.276;2023-09-19T09:09:06;22.00;99.90
31979;DHT22;18502;43.574;1.276;2023-09-19T09:11:33;21.60;99.90
31979;DHT22;18502;43.574;1.276;2023-09-19T09:13:59;21.30;99.90
31979;DHT22;18502;43.574;1.276;2023-09-19T09:16:24;20.90;99.90
31979;DHT22;18502;43.574;1.276;2023-09-19T09:18:51;20.90;99.90
31979;DHT22;18502;43.574;1.276;2023-09-19T09:21:20;21.20;99.90
31979;DHT22;18502;43.574;1.276;2023-09-19T09:23:48;21.80;99.90
31979;DHT22;18502;43.574;1.276;2023-09-19T09:26:15;22.20;99.90
31979;DHT22;18502;43.574;1.276;2023-09-19T09:28:45;22.10;99.90
31979;DHT22;18502;43.574;1.276;2023-09-19T09:31:24;21.80;99.90
31979;DHT22;18502;43.574;1.276;2023-09-19T09:33:56;21.80;99.90
31979;DHT22;18502;43.574;1.276;2023-09-19T09:36:37;22.10;99.90
31979;DHT22;18502;43.574;1.276;2023-09-19T09:39:03;22.40;99.90
31979;DHT22;18502;43.574;1.276;2023-09-19T09:41:42;23.30;99.90
31979;DHT22;18502;43.574;1.276;2023-09-19T09:44:18;23.10;99.90
31979;DHT22;18502;43.574;1.276;2023-09-19T09:46:48;23.00;99.90
31979;DHT22;18502;43.574;1.276;2023-09-19T09:49:27;23.30;99.90
31979;DHT22;18502;43.574;1.276;2023-09-19T09:52:07;23.60;99.90
31979;DHT22;18502;43.574;1.276;2023-09-19T09:55:02;24.60;99.90
31979;DHT22;18502;43.574;1.276;2023-09-19T09:57:31;25.70;99.90
31979;DHT22;18502;43.574;1.276;2023-09-19T09:59:58;26.80;99.90
31979;DHT22;18502;43.574;1.276;2023-09-19T10:02:40;30.20;99.90
31979;DHT22;18502;43.574;1.276;2023-09-19T10:05:20;30.10;99.90
31979;DHT22;18502;43.574;1.276;2023-09-19T10:07:46;31.10;99.90
31979;DHT22;18502;43.574;1.276;2023-09-19T10:10:39;31.40;99.90
31979;DHT22;18502;43.574;1.276;2023-09-19T10:13:13;31.50;99.90
31979;DHT22;18502;43.574;1.276;2023-09-19T10:15:42;29.30;99.90
31979;DHT22;18502;43.574;1.276;2023-09-19T10:18:15;28.00;99.90
31979;DHT22;18502;43.574;1.276;2023-09-19T10:20:45;28.90;99.90
31979;DHT22;18502;43.574;1.276;2023-09-19T10:23:12;33.60;99.90
31979;DHT22;18502;43.574;1.276;2023-09-19T10:25:42;33.70;99.90
31979;DHT22;18502;43.574;1.276;2023-09-19T10:28:09;35.30;99.90
31979;DHT22;18502;43.574;1.276;2023-09-19T10:30:42;37.00;99.90
31979;DHT22;18502;43.574;1.276;2023-09-19T10:33:11;34.10;99.90
31979;DHT22;18502;43.574;1.276;2023-09-19T10:35:44;34.80;99.90
31979;DHT22;18502;43.574;1.276;2023-09-19T10:38:11;35.00;99.90
31979;DHT22;18502;43.574;1.276;2023-09-19T10:40:38;33.90;99.90
31979;DHT22;18502;43.574;1.276;2023-09-19T10:43:12;33.30;99.90
31979;DHT22;18502;43.574;1.276;2023-09-19T10:45:38;32.60;99.90
31979;DHT22;18502;43.574;1.276;2023-09-19T10:48:06;35.20;99.90
31979;DHT22;18502;43.574;1.276;2023-09-19T10:51:45;33.60;99.90
31979;DHT22;18502;43.574;1.276;2023-09-19T10:56:26;36.40;99.90
31979;DHT22;18502;43.574;1.276;2023-09-19T10:59:11;35.10;99.90
31979;DHT22;18502;43.574;1.276;2023-09-19T11:02:17;37.60;99.90
31979;DHT22;18502;43.574;1.276;2023-09-19T11:04:43;40.30;99.90
31979;DHT22;18502;43.574;1.276;2023-09-19T11:07:11;40.50;99.90
31979;DHT22;18502;43.574;1.276;2023-09-19T11:15:02;41.10;99.90
31979;DHT22;18502;43.574;1.276;2023-09-19T11:17:37;40.10;99.90
31979;DHT22;18502;43.574;1.276;2023-09-19T11:30:47;39.30;99.90
31979;DHT22;18502;43.574;1.276;2023-09-19T11:36:10;41.40;99.90
31979;DHT22;18502;43.574;1.276;2023-09-19T11:46:30;37.90;99.90
31979;DHT22;18502;43.574;1.276;2023-09-19T11:49:05;41.40;99.90
31979;DHT22;18502;43.574;1.276;2023-09-19T11:51:44;39.70;99.90
31979;DHT22;18502;43.574;1.276;2023-09-19T11:54:14;43.00;99.90
31979;DHT22;18502;43.574;1.276;2023-09-19T11:56:44;43.90;99.90
31979;DHT22;18502;43.574;1.276;2023-09-19T11:59:11;44.30;99.90
31979;DHT22;18502;43.574;1.276;2023-09-19T12:01:41;42.80;99.90
31979;DHT22;18502;43.574;1.276;2023-09-19T12:04:11;40.50;99.90
31979;DHT22;18502;43.574;1.276;2023-09-19T12:06:37;41.50;99.90
31979;DHT22;18502;43.574;1.276;2023-09-19T12:09:12;39.70;99.90
31979;DHT22;18502;43.574;1.276;2023-09-19T12:11:42;41.50;99.90
31979;DHT22;18502;43.574;1.276;2023-09-19T12:14:11;40.70;99.90
31979;DHT22;18502;43.574;1.276;2023-09-19T12:16:54;41.50;99.90
31979;DHT22;18502;43.574;1.276;2023-09-19T12:19:22;40.60;99.90
31979;DHT22;18502;43.574;1.276;2023-09-19T12:22:02;42.40;99.90
31979;DHT22;18502;43.574;1.276;2023-09-19T12:24:32;45.10;99.90
31979;DHT22;18502;43.574;1.276;2023-09-19T12:27:03;45.30;99.90
31979;DHT22;18502;43.574;1.276;2023-09-19T12:29:31;36.60;99.90
31979;DHT22;18502;43.574;1.276;2023-09-19T12:31:58;33.40;99.90
31979;DHT22;18502;43.574;1.276;2023-09-19T12:34:26;38.00;99.90
31979;DHT22;18502;43.574;1.276;2023-09-19T12:37:06;38.60;99.90
31979;DHT22;18502;43.574;1.276;2023-09-19T12:39:43;40.30;99.90
31979;DHT22;18502;43.574;1.276;2023-09-19T12:42:23;38.60;99.90
31979;DHT22;18502;43.574;1.276;2023-09-19T12:44:51;40.50;99.90
31979;DHT22;18502;43.574;1.276;2023-09-19T12:47:27;40.30;99.90
31979;DHT22;18502;43.574;1.276;2023-09-19T12:50:12;42.30;99.90
31979;DHT22;18502;43.574;1.276;2023-09-19T12:52:51;43.40;99.90
31979;DHT22;18502;43.574;1.276;2023-09-19T12:55:31;45.00;99.90
31979;DHT22;18502;43.574;1.276;2023-09-19T12:58:12;46.50;99.90
31979;DHT22;18502;43.574;1.276;2023-09-19T13:00:42;46.60;99.90
31979;DHT22;18502;43.574;1.276;2023-09-19T13:05:55;46.30;99.90
31979;DHT22;18502;43.574;1.276;2023-09-19T13:08:26;45.30;99.90
31979;DHT22;18502;43.574;1.276;2023-09-19T13:11:01;45.20;99.90
31979;DHT22;18502;43.574;1.276;2023-09-19T13:13:27;42.70;99.90
31979;DHT22;18502;43.574;1.276;2023-09-19T13:15:55;39.10;99.90
31979;DHT22;18502;43.574;1.276;2023-09-19T13:18:22;40.90;99.90
31979;DHT22;18502;43.574;1.276;2023-09-19T13:21:08;44.70;99.90
31979;DHT22;18502;43.574;1.276;2023-09-19T13:23:38;42.10;99.90
31979;DHT22;18502;43.574;1.276;2023-09-19T13:26:03;44.40;99.90
31979;DHT22;18502;43.574;1.276;2023-09-19T13:28:33;46.20;99.90
31979;DHT22;18502;43.574;1.276;2023-09-19T13:30:59;47.10;99.90
31979;DHT22;18502;43.574;1.276;2023-09-19T13:33:25;46.60;99.90
31979;DHT22;18502;43.574;1.276;2023-09-19T13:35:52;46.60;99.90
31979;DHT22;18502;43.574;1.276;2023-09-19T13:38:18;46.80;99.90
31979;DHT22;18502;43.574;1.276;2023-09-19T13:40:47;46.50;99.90
31979;DHT22;18502;43.574;1.276;2023-09-19T13:43:13;43.30;99.90
31979;DHT22;18502;43.574;1.276;2023-09-19T13:45:39;45.40;99.90
31979;DHT22;18502;43.574;1.276;2023-09-19T13:48:07;47.00;99.90
31979;DHT22;18502;43.574;1.276;2023-09-19T13:50:34;48.00;99.90
31979;DHT22;18502;43.574;1.276;2023-09-19T13:53:02;48.40;99.90
31979;DHT22;18502;43.574;1.276;2023-09-19T13:55:29;48.50;99.90
31979;DHT22;18502;43.574;1.276;2023-09-19T13:57:54;47.50;99.90
31979;DHT22;18502;43.574;1.276;2023-09-19T14:00:22;48.20;99.90
31979;DHT22;18502;43.574;1.276;2023-09-19T14:02:48;48.40;99.90
31979;DHT22;18502;43.574;1.276;2023-09-19T14:05:14;47.70;99.90
31979;DHT22;18502;43.574;1.276;2023-09-19T14:07:42;47.50;99.90
31979;DHT22;18502;43.574;1.276;2023-09-19T14:10:09;46.80;99.90
31979;DHT22;18502;43.574;1.276;2023-09-19T14:12:36;47.00;99.90
31979;DHT22;18502;43.574;1.276;2023-09-19T14:15:06;46.00;99.90
31979;DHT22;18502;43.574;1.276;2023-09-19T14:17:32;46.50;99.90
31979;DHT22;18502;43.574;1.276;2023-09-19T14:19:58;47.10;99.90
31979;DHT22;18502;43.574;1.276;2023-09-19T14:22:24;47.90;99.90
31979;DHT22;18502;43.574;1.276;2023-09-19T14:24:49;48.20;99.90
31979;DHT22;18502;43.574;1.276;2023-09-19T14:27:15;47.60;99.90
31979;DHT22;18502;43.574;1.276;2023-09-19T14:29:42;47.90;99.90
31979;DHT22;18502;43.574;1.276;2023-09-19T14:32:07;46.80;99.90
31979;DHT22;18502;43.574;1.276;2023-09-19T14:34:33;46.80;99.90
31979;DHT22;18502;43.574;1.276;2023-09-19T14:36:59;47.40;99.90
31979;DHT22;18502;43.574;1.276;2023-09-19T14:39:24;46.50;99.90
31979;DHT22;18502;43.574;1.276;2023-09-19T14:41:50;47.20;99.90
31979;DHT22;18502;43.574;1.276;2023-09-19T14:44:16;48.20;99.90
31979;DHT22;18502;43.574;1.276;2023-09-19T14:46:42;47.50;99.90
31979;DHT22;18502;43.574;1.276;2023-09-19T14:49:10;47.70;99.90
31979;DHT22;18502;43.574;1.276;2023-09-19T14:51:37;47.70;99.90
31979;DHT22;18502;43.574;1.276;2023-09-19T14:54:03;47.20;99.90
31979;DHT22;18502;43.574;1.276;2023-09-19T14:56:29;46.90;99.90
31979;DHT22;18502;43.574;1.276;2023-09-19T14:58:56;47.00;99.90
31979;DHT22;18502;43.574;1.276;2023-09-19T15:01:22;47.30;99.90
31979;DHT22;18502;43.574;1.276;2023-09-19T15:03:47;47.90;99.90
31979;DHT22;18502;43.574;1.276;2023-09-19T15:06:15;47.70;99.90
31979;DHT22;18502;43.574;1.276;2023-09-19T15:08:44;47.70;99.90
31979;DHT22;18502;43.574;1.276;2023-09-19T15:11:13;47.30;99.90
31979;DHT22;18502;43.574;1.276;2023-09-19T15:13:42;47.30;99.80
31979;DHT22;18502;43.574;1.276;2023-09-19T15:16:09;47.00;99.90
31979;DHT22;18502;43.574;1.276;2023-09-19T15:18:36;47.10;99.90
31979;DHT22;18502;43.574;1.276;2023-09-19T15:21:05;46.80;99.90
31979;DHT22;18502;43.574;1.276;2023-09-19T15:23:32;46.50;99.90
31979;DHT22;18502;43.574;1.276;2023-09-19T15:26:06;46.30;99.90
31979;DHT22;18502;43.574;1.276;2023-09-19T15:28:33;46.10;99.30
31979;DHT22;18502;43.574;1.276;2023-09-19T15:31:00;46.00;99.50
31979;DHT22;18502;43.574;1.276;2023-09-19T15:33:26;45.60;99.70
31979;DHT22;18502;43.574;1.276;2023-09-19T15:38:29;43.80;99.90
31979;DHT22;18502;43.574;1.276;2023-09-19T15:40:55;45.00;99.90
31979;DHT22;18502;43.574;1.276;2023-09-19T15:43:21;45.30;99.80
31979;DHT22;18502;43.574;1.276;2023-09-19T15:45:47;45.50;99.60
31979;DHT22;18502;43.574;1.276;2023-09-19T15:48:16;45.20;99.50
31979;DHT22;18502;43.574;1.276;2023-09-19T15:50:47;44.80;99.90
31979;DHT22;18502;43.574;1.276;2023-09-19T15:53:12;44.80;99.90
31979;DHT22;18502;43.574;1.276;2023-09-19T15:55:39;45.00;99.20
31979;DHT22;18502;43.574;1.276;2023-09-19T15:58:09;45.40;99.90
31979;DHT22;18502;43.574;1.276;2023-09-19T16:00:40;44.90;99.00
31979;DHT22;18502;43.574;1.276;2023-09-19T16:03:06;44.60;99.00
31979;DHT22;18502;43.574;1.276;2023-09-19T16:05:37;44.00;98.70
31979;DHT22;18502;43.574;1.276;2023-09-19T16:08:08;43.90;98.60
31979;DHT22;18502;43.574;1.276;2023-09-19T16:10:36;43.80;98.70
31979;DHT22;18502;43.574;1.276;2023-09-19T16:13:03;43.80;98.30
31979;DHT22;18502;43.574;1.276;2023-09-19T16:15:29;43.50;98.10
31979;DHT22;18502;43.574;1.276;2023-09-19T16:17:55;43.50;98.10
31979;DHT22;18502;43.574;1.276;2023-09-19T16:20:20;43.30;98.20
31979;DHT22;18502;43.574;1.276;2023-09-19T16:22:48;43.20;98.70
31979;DHT22;18502;43.574;1.276;2023-09-19T16:25:14;42.50;98.90
31979;DHT22;18502;43.574;1.276;2023-09-19T16:27:40;42.50;98.80
31979;DHT22;18502;43.574;1.276;2023-09-19T16:30:07;42.90;97.70